Minto, Canada
Current Conditions -  °F | °C
As of 11:00 PM on Sunday 19 Oct 2014 (Local Time) from CYBR Reporting Station
Clear Clear  
Wind Chill:   Ceiling: Unl
Heat Index:   Visibility: 15mi
Dew Point:   Wind: 3mph
Humidity: 75%   Direction: 320°NW
Pressure: 29.96"   Gusts: NA
Location:  49.4°N, 100.02°W
Report Text: CYBR 200400Z 32003KT 15SM SKC 04/M00 A2996 RMK SLP161
Loading
Personal Weather Stations






























Interactive Weather Map
Tropical Storm Tracking
New forecast layout! Learn more

10-Day Weather Forecast

Advertisements
Track Severe Weather on mobile